Time;durP1;ratioP1;P1;durP2;ratioP2;P2;SDS_P1;SDS_P2;PMS_P1;PMS_P2;Temp;Humidity;BMP_temperature;BMP_pressure;BME280_temperature;BME280_humidity;BME280_pressure;Samples;Min_cycle;Max_cycle;Signal;HPM_P1;HPM_P2
2024/03/30 00:00:51;;;;;;;1.52;0.88;;;;;;;10.08;100.00;69517.38;5075773;28;20044;-48
2024/03/30 00:03:18;;;;;;;1.92;1.00;;;;;;;10.04;100.00;69512.72;5089650;28;20036;-51
2024/03/30 00:05:45;;;;;;;1.98;1.10;;;;;;;10.04;100.00;69515.31;5088449;28;20495;-52
2024/03/30 00:08:13;;;;;;;2.50;1.08;;;;;;;10.04;100.00;69512.13;5087960;28;20052;-52
2024/03/30 00:10:40;;;;;;;1.77;1.08;;;;;;;10.02;100.00;69515.00;5089387;28;20046;-52
2024/03/30 00:13:11;;;;;;;3.58;1.20;;;;;;;9.95;100.00;69504.81;5091933;28;20052;-46
2024/03/30 00:15:38;;;;;;;2.03;1.08;;;;;;;9.94;100.00;69504.22;5089958;28;20052;-47
2024/03/30 00:18:06;;;;;;;3.05;1.10;;;;;;;9.97;100.00;69507.16;5088798;28;20168;-50
2024/03/30 00:20:32;;;;;;;2.42;1.13;;;;;;;9.96;100.00;69503.94;5089065;28;20487;-48
2024/03/30 00:22:59;;;;;;;1.80;1.00;;;;;;;9.95;100.00;69500.19;5091051;28;20054;-50
2024/03/30 00:25:28;;;;;;;3.10;1.10;;;;;;;9.95;100.00;69505.41;5089359;28;20044;-47
2024/03/30 00:27:55;;;;;;;1.83;1.00;;;;;;;9.94;100.00;69499.03;5088502;28;20495;-50
2024/03/30 00:30:22;;;;;;;1.08;0.90;;;;;;;9.90;100.00;69494.34;5088966;28;20407;-52
2024/03/30 00:32:50;;;;;;;1.98;0.90;;;;;;;9.90;100.00;69499.00;5088558;28;20048;-47
2024/03/30 00:35:16;;;;;;;2.55;1.20;;;;;;;9.83;100.00;69491.41;5089162;28;20076;-50
2024/03/30 00:37:43;;;;;;;2.10;1.10;;;;;;;9.82;100.00;69487.63;5074494;28;20650;-48
2024/03/30 00:40:10;;;;;;;1.98;1.00;;;;;;;9.80;100.00;69482.69;5090514;28;20036;-47
2024/03/30 00:42:37;;;;;;;2.90;1.10;;;;;;;9.77;100.00;69484.97;5088670;28;20054;-48
2024/03/30 00:45:04;;;;;;;2.97;1.10;;;;;;;9.76;100.00;69480.63;5088158;28;20069;-48
2024/03/30 00:47:31;;;;;;;2.63;1.30;;;;;;;9.76;100.00;69481.22;5088756;28;20051;-48
2024/03/30 00:49:59;;;;;;;2.97;1.27;;;;;;;9.72;100.00;69479.16;5088838;28;20038;-49
2024/03/30 00:52:26;;;;;;;4.07;1.48;;;;;;;9.70;100.00;69474.22;5091909;28;20051;-50
2024/03/30 00:54:52;;;;;;;2.80;1.60;;;;;;;9.69;100.00;69480.28;5074992;28;20063;-49
2024/03/30 00:57:19;;;;;;;3.17;1.70;;;;;;;9.69;100.00;69475.06;5091446;28;20047;-48
2024/03/30 00:59:45;;;;;;;3.38;1.98;;;;;;;9.67;100.00;69467.50;5090973;28;20044;-46
2024/03/30 01:02:12;;;;;;;4.93;1.95;;;;;;;9.63;100.00;69469.22;5091234;28;20780;-48
2024/03/30 01:04:38;;;;;;;3.90;1.80;;;;;;;9.61;100.00;69463.72;5091448;28;20040;-49
2024/03/30 01:07:07;;;;;;;3.13;1.80;;;;;;;9.61;100.00;69461.09;5091298;28;20079;-50
2024/03/30 01:09:33;;;;;;;3.35;1.75;;;;;;;9.59;100.00;69464.56;5091473;28;20414;-50
2024/03/30 01:12:00;;;;;;;5.18;1.77;;;;;;;9.59;100.00;69461.97;5089143;28;20048;-51
2024/03/30 01:14:27;;;;;;;2.53;1.25;;;;;;;9.55;100.00;69459.91;5088131;28;20097;-48
2024/03/30 01:16:55;;;;;;;3.38;1.60;;;;;;;9.50;100.00;69451.47;5107668;28;20079;-49
2024/03/30 01:19:21;;;;;;;2.55;1.50;;;;;;;9.51;100.00;69452.63;5090798;28;20550;-47
2024/03/30 01:21:49;;;;;;;3.08;1.75;;;;;;;9.49;100.00;69450.31;5072491;28;20040;-50
2024/03/30 01:24:19;;;;;;;3.45;1.45;;;;;;;9.50;100.00;69450.88;5087136;28;20054;-49
2024/03/30 01:26:52;;;;;;;3.10;1.60;;;;;;;9.45;100.00;69448.81;5072773;28;20047;-50
2024/03/30 01:29:23;;;;;;;2.28;1.60;;;;;;;9.43;100.00;69445.91;5090917;28;20415;-48
2024/03/30 01:31:51;;;;;;;3.38;1.60;;;;;;;9.41;100.00;69446.19;5073929;28;20487;-48
2024/03/30 01:34:18;;;;;;;2.30;1.40;;;;;;;9.39;100.00;69436.59;5074529;28;20101;-47
2024/03/30 01:36:45;;;;;;;3.22;1.85;;;;;;;9.43;100.00;69448.50;5090965;28;20421;-48
2024/03/30 01:39:11;;;;;;;2.78;1.67;;;;;;;9.38;100.00;69440.06;5090391;28;20040;-48
2024/03/30 01:41:40;;;;;;;3.38;1.60;;;;;;;9.39;100.00;69441.25;5090995;28;20506;-51
2024/03/30 01:44:06;;;;;;;3.55;1.70;;;;;;;9.40;100.00;69440.38;5090892;28;20048;-48
2024/03/30 01:46:35;;;;;;;3.88;1.80;;;;;;;9.39;100.00;69441.25;5090782;28;20051;-49
2024/03/30 01:49:02;;;;;;;3.00;1.63;;;;;;;9.33;100.00;69434.25;5073418;28;20052;-50
2024/03/30 01:51:30;;;;;;;3.20;1.65;;;;;;;9.28;100.00;69432.19;5090754;28;20051;-50
2024/03/30 01:53:58;;;;;;;4.60;1.88;;;;;;;9.25;100.00;69426.09;5072264;28;20052;-50
2024/03/30 01:56:26;;;;;;;2.90;1.77;;;;;;;9.22;100.00;69422.59;5071223;28;20449;-51
2024/03/30 01:58:56;;;;;;;3.60;1.70;;;;;;;9.18;100.00;69417.94;5089802;28;21133;-51
2024/03/30 02:01:23;;;;;;;3.70;1.88;;;;;;;9.17;100.00;69414.16;5090719;28;20388;-48
2024/03/30 02:03:51;;;;;;;3.42;1.83;;;;;;;9.21;100.00;69423.44;5073979;28;20495;-47
2024/03/30 02:06:19;;;;;;;3.13;1.85;;;;;;;9.16;100.00;69412.97;5090443;28;20052;-49
2024/03/30 02:08:47;;;;;;;3.60;2.15;;;;;;;9.13;100.00;69412.69;5088343;28;20044;-49
2024/03/30 02:11:15;;;;;;;4.55;1.98;;;;;;;9.17;100.00;69416.19;5087521;28;20036;-47
2024/03/30 02:13:41;;;;;;;5.38;2.60;;;;;;;9.16;100.00;69412.97;5087474;28;20491;-50
2024/03/30 02:16:10;;;;;;;4.65;2.60;;;;;;;9.18;100.00;69417.94;5088381;28;20059;-48
2024/03/30 02:18:36;;;;;;;4.68;2.75;;;;;;;9.17;100.00;69416.19;5090818;28;20050;-47
2024/03/30 02:21:03;;;;;;;6.53;2.70;;;;;;;9.14;100.00;69413.84;5090566;28;20044;-47
2024/03/30 02:23:31;;;;;;;4.82;2.50;;;;;;;9.14;100.00;69413.84;5090338;28;20040;-48
2024/03/30 02:25:58;;;;;;;4.40;2.40;;;;;;;9.12;100.00;69408.91;5090292;28;20051;-47
2024/03/30 02:28:26;;;;;;;5.28;2.70;;;;;;;9.12;100.00;69408.91;5087696;28;20043;-48
2024/03/30 02:30:54;;;;;;;4.18;2.70;;;;;;;9.12;100.00;69408.31;5087952;28;20036;-49
2024/03/30 02:33:21;;;;;;;5.55;3.03;;;;;;;9.13;100.00;69406.88;5073607;28;20522;-46
2024/03/30 02:35:49;;;;;;;5.47;2.95;;;;;;;9.13;100.00;69409.50;5090633;28;20112;-48
2024/03/30 02:38:16;;;;;;;6.07;3.25;;;;;;;9.11;100.00;69405.13;5090388;28;20059;-47
2024/03/30 02:40:49;;;;;;;6.60;3.13;;;;;;;9.09;100.00;69408.03;5090689;28;20488;-47
2024/03/30 02:43:15;;;;;;;5.18;3.25;;;;;;;9.08;100.00;69401.66;5073484;28;20085;-48
2024/03/30 02:45:42;;;;;;;6.05;2.90;;;;;;;9.09;100.00;69407.44;5073541;28;20052;-48
2024/03/30 02:48:08;;;;;;;6.28;3.33;;;;;;;9.12;100.00;69408.31;5090398;28;20066;-48
2024/03/30 02:50:35;;;;;;;5.85;3.40;;;;;;;9.08;100.00;69401.66;5090239;28;20047;-48
2024/03/30 02:53:02;;;;;;;6.32;3.63;;;;;;;9.06;100.00;69401.34;5090379;28;20054;-47
2024/03/30 02:55:29;;;;;;;6.68;3.78;;;;;;;9.06;100.00;69398.72;5090013;28;20546;-46
2024/03/30 02:57:56;;;;;;;5.53;3.33;;;;;;;9.04;100.00;69397.00;5090256;28;20044;-47
2024/03/30 03:00:23;;;;;;;6.53;3.67;;;;;;;9.00;100.00;69389.72;5092615;28;20044;-50
2024/03/30 03:02:50;;;;;;;5.72;3.63;;;;;;;9.00;100.00;69391.72;5094142;28;20036;-50
2024/03/30 03:05:18;;;;;;;6.43;3.75;;;;;;;9.02;100.00;69396.66;5093832;28;20044;-48
2024/03/30 03:07:44;;;;;;;6.07;3.30;;;;;;;9.03;100.00;69400.44;5090183;28;20391;-47
2024/03/30 03:10:11;;;;;;;7.47;3.75;;;;;;;9.04;100.00;69401.59;5090616;28;20050;-47
2024/03/30 03:12:37;;;;;;;6.07;3.85;;;;;;;9.04;100.00;69401.59;5093208;28;20032;-47
2024/03/30 03:15:06;;;;;;;6.72;4.00;;;;;;;9.01;100.00;69392.91;5073540;28;20102;-46
2024/03/30 03:17:35;;;;;;;5.65;3.58;;;;;;;8.99;100.00;69396.34;5092261;28;20363;-48
2024/03/30 03:20:05;;;;;;;6.63;3.90;;;;;;;8.98;100.00;69392.59;5093742;28;20044;-48
2024/03/30 03:22:33;;;;;;;;;;;;;;;9.00;100.00;69396.94;5077528;28;20075;-46
2024/03/30 03:25:01;;;;;;;6.45;3.95;;;;;;;9.01;100.00;69398.09;5093741;28;19923;-47
2024/03/30 03:27:27;;;;;;;5.90;3.58;;;;;;;9.00;100.00;69389.13;5093503;28;20040;-48
2024/03/30 03:29:54;;;;;;;6.55;4.13;;;;;;;8.99;100.00;69393.19;5093503;28;20408;-48
2024/03/30 03:32:21;;;;;;;6.68;4.13;;;;;;;8.99;100.00;69396.34;5076420;28;20044;-47
2024/03/30 03:34:49;;;;;;;5.95;4.03;;;;;;;8.97;100.00;69391.41;5093630;28;20079;-47
2024/03/30 03:37:15;;;;;;;7.00;4.15;;;;;;;8.94;100.00;69388.53;5076585;28;20044;-50
2024/03/30 03:39:42;;;;;;;7.63;4.32;;;;;;;8.93;100.00;69386.75;5092961;28;20044;-47
2024/03/30 03:42:08;;;;;;;7.50;4.20;;;;;;;8.98;100.00;69394.63;5093184;28;20391;-51
2024/03/30 03:44:35;;;;;;;6.53;3.72;;;;;;;8.96;100.00;69388.25;5093451;28;20055;-49
2024/03/30 03:47:01;;;;;;;7.18;4.10;;;;;;;9.01;100.00;69403.31;5093611;28;20040;-48
2024/03/30 03:49:30;;;;;;;8.15;4.47;;;;;;;8.94;100.00;69388.53;5092908;28;20044;-48
2024/03/30 03:51:57;;;;;;;7.68;4.45;;;;;;;8.94;100.00;69385.91;5105713;28;20109;-48
2024/03/30 03:54:24;;;;;;;6.78;4.30;;;;;;;8.87;100.00;69379.78;5090390;28;20503;-48
2024/03/30 03:56:51;;;;;;;7.35;4.65;;;;;;;8.86;100.00;69381.81;5093063;28;20040;-46
2024/03/30 03:59:18;;;;;;;6.63;4.32;;;;;;;8.87;100.00;69382.38;5092934;28;20095;-48
2024/03/30 04:01:44;;;;;;;7.95;4.55;;;;;;;8.87;100.00;69377.75;5093060;28;20032;-50
2024/03/30 04:04:11;;;;;;;6.93;4.60;;;;;;;8.83;100.00;69373.09;5089774;28;20054;-48
2024/03/30 04:06:38;;;;;;;7.47;4.93;;;;;;;8.83;100.00;69377.72;5089795;28;20490;-47
2024/03/30 04:09:05;;;;;;;7.30;4.78;;;;;;;8.84;100.00;69379.47;5092824;28;20043;-46
2024/03/30 04:11:32;;;;;;;7.18;4.55;;;;;;;8.84;100.00;69373.69;5091788;28;20043;-48
2024/03/30 04:13:59;;;;;;;7.28;4.90;;;;;;;8.82;100.00;69373.94;5092722;28;20040;-48
2024/03/30 04:16:25;;;;;;;7.78;5.18;;;;;;;8.83;100.00;69375.69;5092548;28;20063;-49
2024/03/30 04:18:53;;;;;;;7.68;5.15;;;;;;;8.85;100.00;69380.03;5092399;28;20052;-48
2024/03/30 04:21:19;;;;;;;7.95;5.15;;;;;;;8.85;100.00;69380.63;5092682;28;20044;-47
2024/03/30 04:23:50;;;;;;;7.80;5.05;;;;;;;8.86;100.00;69379.19;5092629;28;20044;-50
2024/03/30 04:26:18;;;;;;;7.30;4.90;;;;;;;8.88;100.00;69383.53;5092814;28;20036;-49
2024/03/30 04:28:45;;;;;;;8.25;5.30;;;;;;;8.87;100.00;69377.75;5092873;28;20538;-47
2024/03/30 04:31:12;;;;;;;7.68;5.45;;;;;;;8.86;100.00;69379.19;5089206;28;20123;-49
2024/03/30 04:33:42;;;;;;;7.68;4.85;;;;;;;8.86;100.00;69378.59;5088851;28;20047;-47
2024/03/30 04:36:08;;;;;;;7.55;5.20;;;;;;;8.88;100.00;69378.91;5092299;28;20044;-48
2024/03/30 04:38:36;;;;;;;9.73;5.85;;;;;;;8.85;100.00;69377.44;5075406;28;20131;-48
2024/03/30 04:41:05;;;;;;;8.65;5.88;;;;;;;8.88;100.00;69384.13;5092395;28;20171;-50
2024/03/30 04:43:35;;;;;;;8.52;5.90;;;;;;;8.88;100.00;69386.16;5089651;28;20105;-51
2024/03/30 04:46:05;;;;;;;8.27;5.38;;;;;;;8.88;100.00;69383.53;5089719;28;20067;-48
2024/03/30 04:48:31;;;;;;;9.63;5.82;;;;;;;8.87;100.00;69377.16;5075041;28;20059;-49
2024/03/30 04:51:01;;;;;;;9.07;5.90;;;;;;;8.85;100.00;69383.22;5074902;28;20134;-49
2024/03/30 04:53:30;;;;;;;8.43;5.10;;;;;;;8.83;100.00;69377.72;5090267;28;20135;-48
2024/03/30 04:55:58;;;;;;;8.20;6.07;;;;;;;8.84;100.00;69379.47;5088585;28;20047;-47
2024/03/30 04:58:27;;;;;;;8.27;5.68;;;;;;;8.84;100.00;69378.88;5074798;28;20411;-48
2024/03/30 05:00:56;;;;;;;8.43;5.43;;;;;;;8.84;100.00;69374.25;5092328;28;20040;-49
2024/03/30 05:03:24;;;;;;;8.95;5.57;;;;;;;8.83;100.00;69378.28;5091680;28;20492;-48
2024/03/30 05:05:51;;;;;;;8.30;5.65;;;;;;;8.84;100.00;69371.66;5091467;28;20039;-47
2024/03/30 05:08:17;;;;;;;10.40;6.13;;;;;;;8.86;100.00;69384.41;5091624;28;20054;-51
2024/03/30 05:10:45;;;;;;;8.57;6.07;;;;;;;8.83;100.00;69378.28;5091610;28;20071;-50
2024/03/30 05:13:12;;;;;;;11.25;5.78;;;;;;;8.84;100.00;69376.84;5091371;28;20044;-49
2024/03/30 05:15:41;;;;;;;10.23;7.03;;;;;;;8.80;100.00;69375.38;5091542;28;20050;-50
2024/03/30 05:18:09;;;;;;;9.65;7.13;;;;;;;8.78;100.00;69369.84;5091546;28;20047;-47
2024/03/30 05:20:49;;;;;;;11.15;7.72;;;;;;;8.72;100.00;69368.06;5091346;28;20079;-50
2024/03/30 05:23:17;;;;;;;11.38;7.85;;;;;;;8.71;100.00;69367.50;5091321;28;20141;-49
2024/03/30 05:25:44;;;;;;;11.02;7.78;;;;;;;8.72;100.00;69368.06;5074187;28;20032;-47
2024/03/30 05:28:11;;;;;;;11.20;7.93;;;;;;;8.74;100.00;69365.19;5091370;28;20040;-46
2024/03/30 05:30:38;;;;;;;13.15;7.82;;;;;;;8.76;100.00;69370.13;5091309;28;20445;-47
2024/03/30 05:33:06;;;;;;;11.60;8.02;;;;;;;8.78;100.00;69369.84;5091479;28;20044;-46
2024/03/30 05:35:33;;;;;;;10.77;7.47;;;;;;;8.77;100.00;69368.69;5091479;28;20128;-46
2024/03/30 05:37:59;;;;;;;11.18;7.78;;;;;;;8.77;100.00;69374.47;5091099;28;20036;-46
2024/03/30 05:40:26;;;;;;;11.75;8.07;;;;;;;8.82;100.00;69374.53;5090992;28;20506;-52
2024/03/30 05:42:53;;;;;;;12.30;7.88;;;;;;;8.81;100.00;69375.97;5091111;28;20479;-48
2024/03/30 05:45:23;;;;;;;11.65;7.20;;;;;;;8.73;100.00;69364.03;5091140;28;20048;-47
2024/03/30 05:47:49;;;;;;;10.35;7.15;;;;;;;8.74;100.00;69368.38;5090222;28;20088;-47
2024/03/30 05:50:18;;;;;;;10.45;7.38;;;;;;;8.73;100.00;69364.03;5078455;28;20040;-50
2024/03/30 05:52:44;;;;;;;10.48;6.68;;;;;;;8.71;100.00;69359.69;5086560;28;20032;-47
2024/03/30 05:55:11;;;;;;;11.10;6.75;;;;;;;8.73;100.00;69361.44;5090531;28;20105;-46
2024/03/30 05:57:37;;;;;;;10.95;6.75;;;;;;;8.71;100.00;69359.69;5090448;28;20164;-48
2024/03/30 06:00:09;;;;;;;11.02;7.95;;;;;;;8.71;100.00;69359.09;5090849;28;20043;-48
2024/03/30 06:02:38;;;;;;;14.15;10.23;;;;;;;8.66;100.00;69353.25;5090824;28;20510;-49
2024/03/30 06:05:06;;;;;;;14.25;9.73;;;;;;;8.66;100.00;69358.47;5090369;28;20047;-48
2024/03/30 06:07:34;;;;;;;15.80;11.55;;;;;;;8.64;100.00;69354.13;5086633;28;20422;-52
2024/03/30 06:10:01;;;;;;;16.33;11.93;;;;;;;8.65;100.00;69357.91;5088312;28;20549;-48
2024/03/30 06:12:27;;;;;;;15.82;11.63;;;;;;;8.63;100.00;69356.16;5090175;28;20044;-48
2024/03/30 06:14:54;;;;;;;16.67;10.43;;;;;;;8.66;100.00;69358.47;5090351;28;20044;-46
2024/03/30 06:17:20;;;;;;;13.98;9.50;;;;;;;8.63;100.00;69356.16;5090405;28;20491;-49
2024/03/30 06:19:47;;;;;;;11.63;7.82;;;;;;;8.67;100.00;69357.03;5090352;28;20048;-49
2024/03/30 06:22:14;;;;;;;13.02;8.05;;;;;;;8.67;100.00;69357.63;5090468;28;20051;-53
2024/03/30 06:24:42;;;;;;;12.05;7.82;;;;;;;8.68;100.00;69358.22;5090318;28;20052;-53
2024/03/30 06:27:09;;;;;;;13.38;8.57;;;;;;;8.67;100.00;69360.22;5090416;28;20105;-47
2024/03/30 06:29:38;;;;;;;12.27;8.43;;;;;;;8.71;100.00;69364.31;5090754;28;20418;-48
2024/03/30 06:32:05;;;;;;;15.13;10.00;;;;;;;8.74;100.00;69365.78;5090115;28;20373;-48
2024/03/30 06:34:35;;;;;;;13.30;9.20;;;;;;;8.78;100.00;69372.44;5091476;28;20036;-46
2024/03/30 06:37:03;;;;;;;15.27;10.05;;;;;;;8.79;100.00;69376.81;5094273;28;20040;-48
2024/03/30 06:43:40;;;;;;;14.52;10.55;;;;;;;8.81;100.00;69375.97;5094190;28;20050;-47
2024/03/30 06:45:00;;;;;;;17.23;11.65;;;;;;;8.93;100.00;69382.16;5071882;28;20056;-46
2024/03/30 06:47:27;;;;;;;16.17;11.60;;;;;;;8.94;100.00;69388.53;5077782;28;20055;-50
2024/03/30 06:49:54;;;;;;;16.67;12.15;;;;;;;8.94;100.00;69391.13;5076681;28;20055;-51
2024/03/30 06:52:21;;;;;;;15.85;11.75;;;;;;;8.99;100.00;69396.34;5093581;28;20074;-50
2024/03/30 06:54:48;;;;;;;15.38;11.20;;;;;;;9.00;100.00;69391.72;5093820;28;20390;-47
2024/03/30 06:57:15;;;;;;;14.45;10.93;;;;;;;9.01;100.00;69398.09;5094300;28;20032;-48
2024/03/30 06:59:43;;;;;;;15.82;11.93;;;;;;;9.01;100.00;69395.50;5094552;28;20475;-48
2024/03/30 07:02:12;;;;;;;16.13;12.18;;;;;;;9.00;100.00;69397.53;5094130;28;20109;-48
2024/03/30 07:04:39;;;;;;;14.73;11.35;;;;;;;9.01;100.00;69395.50;5093388;28;20048;-51
2024/03/30 07:07:05;;;;;;;19.42;12.25;;;;;;;9.03;100.00;69398.41;5093620;28;20044;-50
2024/03/30 07:09:33;;;;;;;16.63;12.20;;;;;;;9.05;100.00;69400.16;5073336;28;20101;-49
2024/03/30 07:11:59;;;;;;;16.42;12.13;;;;;;;9.09;100.00;69402.22;5090317;28;20082;-50
2024/03/30 07:14:28;;;;;;;16.00;12.68;;;;;;;9.12;100.00;69405.72;5093529;28;20048;-48
2024/03/30 07:16:56;;;;;;;16.88;12.05;;;;;;;9.16;100.00;69410.38;5093727;28;20131;-53
2024/03/30 07:19:23;;;;;;;16.33;11.85;;;;;;;9.21;100.00;69420.84;5093597;28;20746;-53
2024/03/30 07:21:51;;;;;;;14.85;11.73;;;;;;;9.23;100.00;69415.94;5090670;28;20483;-49
2024/03/30 07:24:18;;;;;;;17.30;12.38;;;;;;;9.24;100.00;69419.13;5089819;28;20055;-47
2024/03/30 07:26:44;;;;;;;15.30;11.52;;;;;;;9.29;100.00;69430.75;5090558;28;20044;-51
2024/03/30 07:29:12;;;;;;;14.93;11.13;;;;;;;9.37;100.00;69434.28;5091125;28;20079;-47
2024/03/30 07:31:38;;;;;;;13.95;10.63;;;;;;;9.38;100.00;69438.06;5093056;28;20044;-46
2024/03/30 07:34:06;;;;;;;15.52;11.85;;;;;;;9.39;100.00;69439.22;5076204;28;20050;-49
2024/03/30 07:36:33;;;;;;;13.95;10.80;;;;;;;9.47;100.00;69445.38;5093094;28;20054;-48
2024/03/30 07:39:00;;;;;;;14.95;11.23;;;;;;;9.48;100.00;69451.75;5092996;28;20054;-47
2024/03/30 07:41:26;;;;;;;14.65;11.27;;;;;;;9.54;100.00;69456.13;5092982;28;20059;-47
2024/03/30 07:43:53;;;;;;;14.98;11.63;;;;;;;9.59;100.00;69459.34;5092857;28;20555;-48
2024/03/30 07:46:19;;;;;;;14.25;10.75;;;;;;;9.59;100.00;69461.38;5091662;28;20036;-47
2024/03/30 07:48:46;;;;;;;13.73;10.18;;;;;;;9.57;100.00;69462.25;5092983;28;20040;-47
2024/03/30 07:51:14;;;;;;;12.85;10.02;;;;;;;9.61;100.00;69458.50;5075873;28;20048;-48
2024/03/30 07:53:41;;;;;;;14.68;10.15;;;;;;;9.63;100.00;69466.63;5092608;28;20056;-49
2024/03/30 07:56:08;;;;;;;11.68;9.35;;;;;;;9.64;100.00;69467.81;5092958;28;20410;-49
2024/03/30 07:58:34;;;;;;;13.75;10.25;;;;;;;9.67;100.00;69467.50;5075867;28;20411;-49
2024/03/30 08:01:06;;;;;;;13.32;9.90;;;;;;;9.69;100.00;69472.47;5092706;28;20051;-49
2024/03/30 08:03:32;;;;;;;13.60;9.43;;;;;;;9.71;100.00;69472.19;5092876;28;20032;-46
2024/03/30 08:05:59;;;;;;;12.55;9.60;;;;;;;9.72;100.00;69478.56;5092543;28;20040;-50
2024/03/30 08:08:27;;;;;;;11.93;9.05;;;;;;;9.76;100.00;69481.22;5075653;28;20380;-49
2024/03/30 08:10:54;;;;;;;12.23;8.63;;;;;;;9.78;100.00;69480.94;5092596;28;20055;-49
2024/03/30 08:13:20;;;;;;;11.55;8.90;;;;;;;9.85;100.00;69487.94;5092510;28;20048;-47
2024/03/30 08:15:48;;;;;;;11.63;9.10;;;;;;;9.82;100.00;69488.19;5092552;28;20044;-47
2024/03/30 08:18:14;;;;;;;11.50;8.85;;;;;;;9.87;100.00;69490.84;5092449;28;20044;-48
2024/03/30 08:20:42;;;;;;;11.98;8.05;;;;;;;9.90;100.00;69491.16;5075387;28;20082;-48
2024/03/30 08:23:08;;;;;;;11.70;8.50;;;;;;;9.93;100.00;69502.50;5092604;28;20036;-46
2024/03/30 08:25:36;;;;;;;12.02;8.15;;;;;;;9.99;100.00;69506.88;5092090;28;20048;-46
2024/03/30 08:28:03;;;;;;;10.82;7.85;;;;;;;10.01;100.00;69506.00;5092391;28;20044;-48
2024/03/30 08:30:31;;;;;;;11.13;8.45;;;;;;;10.12;100.00;69518.84;5092338;28;20044;-48
2024/03/30 08:32:57;;;;;;;9.88;7.78;;;;;;;10.14;100.00;69521.19;5091692;28;20420;-47
2024/03/30 08:35:25;;;;;;;10.95;8.02;;;;;;;10.23;100.00;69531.09;5091813;28;20583;-48
2024/03/30 08:37:51;;;;;;;12.18;8.15;;;;;;;10.33;100.00;69545.38;5092219;28;20040;-47
2024/03/30 08:40:18;;;;;;;10.45;7.63;;;;;;;10.42;100.00;69553.28;5075106;28;20080;-48
2024/03/30 08:42:45;;;;;;;11.45;8.05;;;;;;;10.55;100.00;69567.91;5091911;28;20131;-51
2024/03/30 08:45:13;;;;;;;12.35;8.05;;;;;;;10.64;100.00;69578.38;5091957;28;20032;-46
2024/03/30 08:47:39;;;;;;;11.45;8.00;;;;;;;10.81;100.00;69602.28;5108591;28;20044;-48
2024/03/30 08:50:06;;;;;;;9.80;7.15;;;;;;;10.99;100.00;69620.69;5088532;28;20131;-51
2024/03/30 08:52:32;;;;;;;10.25;7.30;;;;;;;11.09;100.00;69628.59;5089627;28;20043;-48
2024/03/30 08:54:59;;;;;;;8.95;6.90;;;;;;;11.21;100.00;69645.22;5091681;28;20109;-49
2024/03/30 08:57:26;;;;;;;11.32;7.40;;;;;;;11.42;100.00;69671.19;5091276;28;20047;-46
2024/03/30 08:59:54;;;;;;;10.50;6.88;;;;;;;11.47;100.00;69669.19;5091905;28;20054;-48
2024/03/30 09:02:20;;;;;;;10.05;6.30;;;;;;;11.61;100.00;69688.13;5091627;28;20040;-49
2024/03/30 09:04:49;;;;;;;11.52;6.97;;;;;;;11.68;100.00;69698.34;5090695;28;20054;-49
2024/03/30 09:07:15;;;;;;;9.57;6.30;;;;;;;11.77;100.00;69706.25;5087333;28;20552;-49
2024/03/30 09:09:43;;;;;;;10.18;6.30;;;;;;;11.81;100.00;69712.97;5089361;28;20055;-51
2024/03/30 09:12:09;;;;;;;7.75;5.40;;;;;;;11.91;100.00;69722.00;5091327;28;20036;-51
2024/03/30 09:14:36;;;;;;;11.45;6.05;;;;;;;11.95;100.00;69731.94;5091303;28;20035;-48
2024/03/30 09:17:05;;;;;;;8.02;5.20;;;;;;;12.03;100.00;69737.53;5091675;28;20055;-46
2024/03/30 09:19:32;;;;;;;9.43;5.80;;;;;;;12.13;100.00;69747.16;5090655;28;20048;-47
2024/03/30 09:22:02;;;;;;;10.20;5.47;;;;;;;12.24;100.00;69758.84;5086911;28;20075;-47
2024/03/30 09:24:29;;;;;;;9.80;5.50;;;;;;;12.33;100.00;69769.38;5089813;28;20044;-50
2024/03/30 09:26:56;;;;;;;10.27;5.53;;;;;;;12.38;100.00;69772.59;5074796;28;20048;-48
2024/03/30 09:29:25;;;;;;;11.38;5.93;;;;;;;12.41;100.00;69773.47;5091151;28;20035;-54
2024/03/30 09:31:52;;;;;;;8.30;5.22;;;;;;;12.49;100.00;69793.31;5091856;28;20055;-49
2024/03/30 09:34:21;;;;;;;9.63;4.65;;;;;;;12.60;100.00;69800.34;5092237;28;20163;-53
2024/03/30 09:36:47;;;;;;;12.57;5.40;;;;;;;12.64;100.00;69807.06;5091667;28;20055;-46
2024/03/30 09:39:14;;;;;;;10.75;4.95;;;;;;;12.74;100.00;69815.53;5091933;28;20040;-51
2024/03/30 09:41:48;;;;;;;13.90;5.38;;;;;;;12.77;100.00;69816.44;5091158;28;20490;-48
2024/03/30 09:44:16;;;;;;;11.23;4.22;;;;;;;12.78;100.00;69820.22;5090821;28;20036;-54
2024/03/30 09:46:44;;;;;;;15.68;4.20;;;;;;;12.85;100.00;69828.41;5090522;28;20047;-53
2024/03/30 09:49:11;;;;;;;15.32;3.88;;;;;;;12.95;100.00;69845.34;5090786;28;20040;-47
2024/03/30 09:51:40;;;;;;;12.00;4.25;;;;;;;13.00;100.00;69845.34;5074110;28;20054;-51
2024/03/30 09:54:08;;;;;;;16.27;4.78;;;;;;;13.11;100.00;69857.63;5090936;28;20044;-50
2024/03/30 09:56:35;;;;;;;21.67;4.72;;;;;;;13.19;100.00;69867.56;5090767;28;20084;-47
2024/03/30 09:59:06;;;;;;;14.98;4.00;;;;;;;13.37;100.00;69887.47;5090686;28;20089;-48
2024/03/30 10:01:32;;;;;;;17.83;3.95;;;;;;;13.44;100.00;69895.69;5090305;28;20032;-48
2024/03/30 10:03:59;;;;;;;15.10;3.78;;;;;;;13.49;100.00;69896.25;5107487;28;20597;-46
2024/03/30 10:06:28;;;;;;;20.70;4.40;;;;;;;13.60;100.00;69913.22;5090609;28;20044;-49
2024/03/30 10:09:03;;;;;;;23.13;4.68;;;;;;;13.82;100.00;69941.56;5089945;28;20075;-47
2024/03/30 10:11:31;;;;;;;15.32;4.10;;;;;;;14.00;100.00;69959.44;5090619;28;20048;-46
2024/03/30 10:14:07;;;;;;;19.45;4.55;;;;;;;14.19;100.00;69980.50;5091044;28;20040;-46
2024/03/30 10:16:33;;;;;;;17.98;3.80;;;;;;;14.28;100.00;69987.81;5090446;28;20077;-46
2024/03/30 10:19:00;;;;;;;17.40;3.95;;;;;;;14.21;100.00;69982.84;5071371;28;20545;-46
2024/03/30 10:21:27;;;;;;;18.67;4.00;;;;;;;14.29;100.00;69988.97;5087251;28;20410;-46
2024/03/30 10:23:56;;;;;;;14.05;4.20;;;;;;;14.08;100.00;69965.56;5089337;28;20131;-48
2024/03/30 10:26:24;;;;;;;16.20;4.32;;;;;;;14.11;100.00;69965.88;5087348;28;20390;-48
2024/03/30 10:28:51;;;;;;;20.95;4.30;;;;;;;14.10;100.00;69970.53;5088466;28;20069;-46
2024/03/30 10:31:17;;;;;;;18.83;3.90;;;;;;;14.18;100.00;69977.28;5090625;28;20060;-46
2024/03/30 10:33:44;;;;;;;17.55;3.90;;;;;;;14.25;100.00;69987.53;5090320;28;20072;-48
2024/03/30 10:36:10;;;;;;;15.57;4.57;;;;;;;14.27;100.00;69989.84;5090201;28;20055;-47
2024/03/30 10:38:38;;;;;;;19.52;4.43;;;;;;;14.32;100.00;69995.72;5073329;28;20054;-46
2024/03/30 10:41:06;;;;;;;16.33;4.05;;;;;;;14.31;100.00;69994.53;5090365;28;20040;-47
2024/03/30 10:43:34;;;;;;;15.32;4.28;;;;;;;14.42;100.00;70008.88;5090013;28;20130;-49
2024/03/30 10:46:01;;;;;;;15.82;4.18;;;;;;;14.53;100.00;70019.72;5090311;28;20672;-48
2024/03/30 10:48:29;;;;;;;19.77;4.50;;;;;;;14.51;100.00;70014.72;5090200;28;20066;-46
2024/03/30 10:50:57;;;;;;;21.23;4.57;;;;;;;14.62;100.00;70029.06;5090205;28;20094;-46
2024/03/30 10:53:23;;;;;;;15.88;4.18;;;;;;;14.65;100.00;70032.59;5072935;28;20032;-48
2024/03/30 10:55:51;;;;;;;14.00;5.10;;;;;;;14.62;100.00;70029.66;5090050;28;20044;-48
2024/03/30 10:58:21;;;;;;;15.65;4.50;;;;;;;14.70;100.00;70039.03;5090307;28;20050;-45
2024/03/30 11:00:50;;;;;;;16.63;4.05;;;;;;;14.78;100.00;70047.22;5090230;28;20047;-46
2024/03/30 11:03:17;;;;;;;15.85;4.13;;;;;;;14.83;100.00;70055.72;5089938;28;20051;-46
2024/03/30 11:05:46;;;;;;;18.35;4.70;;;;;;;14.88;100.00;70056.31;5073081;28;20097;-46
2024/03/30 11:08:13;;;;;;;16.50;4.50;;;;;;;14.93;100.00;70066.84;5089796;28;20101;-46
2024/03/30 11:10:41;;;;;;;14.80;4.00;;;;;;;14.99;100.00;70074.44;5089766;28;20081;-47
2024/03/30 11:13:10;;;;;;;14.55;3.75;;;;;;;15.06;100.00;70081.50;5089947;28;20036;-46
2024/03/30 11:15:43;;;;;;;12.85;3.63;;;;;;;15.15;100.00;70089.41;5089792;28;20445;-47
2024/03/30 11:18:12;;;;;;;;;;;;;;;15.19;100.00;70096.72;5072384;28;20044;-46
2024/03/30 11:20:45;;;;;;;16.73;3.60;;;;;;;15.10;100.00;70083.53;5088130;28;19930;-46
2024/03/30 11:23:25;;;;;;;19.27;4.05;;;;;;;15.11;100.00;70084.72;5091566;28;20036;-48
2024/03/30 11:26:09;;;;;;;14.07;3.45;;;;;;;15.15;100.00;70089.41;5093318;28;20093;-48
2024/03/30 11:28:48;;;;;;;16.73;3.58;;;;;;;15.20;100.00;70095.84;5093381;28;20036;-48
2024/03/30 11:31:23;;;;;;;19.25;3.70;;;;;;;15.31;100.00;70105.50;5093402;28;20047;-46